Time;durP1;ratioP1;P1;durP2;ratioP2;P2;SDS_P1;SDS_P2;PMS_P1;PMS_P2;Temp;Humidity;BMP_temperature;BMP_pressure;BME280_temperature;BME280_humidity;BME280_pressure;Samples;Min_cycle;Max_cycle;Signal;HPM_P1;HPM_P2
2023/08/16 00:00:31;;;;;;;;;;;;;;;;;;4997288;28;19974;-76
2023/08/16 00:02:57;;;;;;;;;;;;;;;;;;5018440;28;19921;-77
2023/08/16 00:05:23;;;;;;;;;;;;;;;;;;5022807;28;19923;-77
2023/08/16 00:07:48;;;;;;;;;;;;;;;;;;4984787;28;19921;-77
2023/08/16 00:10:13;;;;;;;;;;;;;;;;;;4992523;28;20696;-76
2023/08/16 00:12:38;;;;;;;;;;;;;;;;;;4986044;28;19994;-77
2023/08/16 00:15:04;;;;;;;;;;;;;;;;;;5002916;28;19921;-77
2023/08/16 00:17:29;;;;;;;;;;;;;;;;;;5017237;28;22003;-78
2023/08/16 00:19:54;;;;;;;;;;;;;;;;;;5002252;28;19921;-77
2023/08/16 00:22:20;;;;;;;;;;;;;;;;;;4999918;28;20024;-77
2023/08/16 00:24:45;;;;;;;;;;;;;;;;;;5001073;28;19929;-77
2023/08/16 00:27:10;;;;;;;;;;;;;;;;;;4990138;28;20283;-76
2023/08/16 00:29:36;;;;;;;;;;;;;;;;;;4993237;28;19920;-76
2023/08/16 00:32:03;;;;;;;;;;;;;;;;;;4983160;28;20036;-76
2023/08/16 00:34:28;;;;;;;;;;;;;;;;;;5000042;28;20354;-78
2023/08/16 00:36:54;;;;;;;;;;;;;;;;;;5008886;28;19928;-76
2023/08/16 00:39:19;;;;;;;;;;;;;;;;;;4994617;28;19928;-77
2023/08/16 00:41:45;;;;;;;;;;;;;;;;;;5022511;28;19959;-77
2023/08/16 00:44:10;;;;;;;;;;;;;;;;;;4991298;28;20391;-77
2023/08/16 00:46:35;;;;;;;;;;;;;;;;;;5024893;28;20000;-76
2023/08/16 00:49:00;;;;;;;;;;;;;;;;;;5023919;28;19921;-76
2023/08/16 00:51:26;;;;;;;;;;;;;;;;;;5004185;28;19967;-78
2023/08/16 00:53:51;;;;;;;;;;;;;;;;;;5022324;28;20372;-77
2023/08/16 00:56:16;;;;;;;;;;;;;;;;;;5005344;28;19928;-78
2023/08/16 00:58:41;;;;;;;;;;;;;;;;;;5022838;28;20058;-78
2023/08/16 01:01:07;;;;;;;;;;;;;;;;;;4994085;28;21723;-76
2023/08/16 01:03:32;;;;;;;;;;;;;;;;;;5022677;28;19921;-77
2023/08/16 01:05:57;;;;;;;;;;;;;;;;;;5021196;28;19917;-77
2023/08/16 01:08:23;;;;;;;;;;;;;;;;;;5021775;28;20035;-77
2023/08/16 01:10:48;;;;;;;;;;;;;;;;;;5007307;28;20379;-78
2023/08/16 01:13:13;;;;;;;;;;;;;;;;;;5021735;28;19920;-78
2023/08/16 01:15:38;;;;;;;;;;;;;;;;;;4992894;28;19921;-78
2023/08/16 01:18:04;;;;;;;;;;;;;;;;;;5022347;28;20585;-77
2023/08/16 01:20:29;;;;;;;;;;;;;;;;;;5013040;28;19921;-77
2023/08/16 01:22:54;;;;;;;;;;;;;;;;;;5024695;28;20362;-77
2023/08/16 01:25:20;;;;;;;;;;;;;;;;;;5013793;28;20281;-78
2023/08/16 01:27:45;;;;;;;;;;;;;;;;;;5005428;28;20485;-77
2023/08/16 01:30:10;;;;;;;;;;;;;;;;;;5004072;28;20069;-77
2023/08/16 01:32:36;;;;;;;;;;;;;;;;;;5012101;28;19920;-77
2023/08/16 01:35:02;;;;;;;;;;;;;;;;;;5009533;28;20483;-77
2023/08/16 01:37:27;;;;;;;;;;;;;;;;;;4995696;28;19936;-77
2023/08/16 01:39:53;;;;;;;;;;;;;;;;;;4994429;28;19917;-78
2023/08/16 01:42:18;;;;;;;;;;;;;;;;;;5004380;28;19921;-78
2023/08/16 01:44:43;;;;;;;;;;;;;;;;;;4990871;28;20075;-77
2023/08/16 01:47:09;;;;;;;;;;;;;;;;;;5010133;28;19924;-77
2023/08/16 01:49:34;;;;;;;;;;;;;;;;;;4995963;28;20064;-77
2023/08/16 01:51:59;;;;;;;;;;;;;;;;;;5006556;28;20108;-78
2023/08/16 01:54:24;;;;;;;;;;;;;;;;;;5026420;28;19931;-78
2023/08/16 01:56:52;;;;;;;;;;;;;;;;;;5022321;28;19927;-77
2023/08/16 01:59:17;;;;;;;;;;;;;;;;;;5004955;28;19921;-78
2023/08/16 02:01:42;;;;;;;;;;;;;;;;;;5006860;28;20909;-78
2023/08/16 02:04:08;;;;;;;;;;;;;;;;;;5006971;28;19924;-78
2023/08/16 02:06:33;;;;;;;;;;;;;;;;;;5011257;28;19923;-78
2023/08/16 02:08:58;;;;;;;;;;;;;;;;;;5006055;28;20036;-78
2023/08/16 02:11:23;;;;;;;;;;;;;;;;;;5026706;28;19924;-77
2023/08/16 02:13:49;;;;;;;;;;;;;;;;;;4985881;28;22508;-77
2023/08/16 02:16:14;;;;;;;;;;;;;;;;;;5004568;28;19917;-77
2023/08/16 02:18:39;;;;;;;;;;;;;;;;;;4993490;28;20288;-77
2023/08/16 02:21:05;;;;;;;;;;;;;;;;;;5024207;28;19972;-77
2023/08/16 02:23:30;;;;;;;;;;;;;;;;;;4996133;28;19947;-78
2023/08/16 02:25:55;;;;;;;;;;;;;;;;;;5003740;28;19921;-77
2023/08/16 02:28:20;;;;;;;;;;;;;;;;;;5022568;28;19971;-78
2023/08/16 02:30:46;;;;;;;;;;;;;;;;;;5009092;28;19936;-77
2023/08/16 02:33:11;;;;;;;;;;;;;;;;;;5026161;28;19971;-78
2023/08/16 02:35:36;;;;;;;;;;;;;;;;;;5010340;28;20012;-78
2023/08/16 02:38:02;;;;;;;;;;;;;;;;;;5025133;28;19932;-77
2023/08/16 02:40:27;;;;;;;;;;;;;;;;;;5008313;28;19913;-78
2023/08/16 02:42:52;;;;;;;;;;;;;;;;;;5011867;28;19920;-79
2023/08/16 02:45:18;;;;;;;;;;;;;;;;;;4998832;28;20858;-79
2023/08/16 02:47:43;;;;;;;;;;;;;;;;;;5027980;28;20296;-78
2023/08/16 02:50:08;;;;;;;;;;;;;;;;;;5025611;28;20799;-78
2023/08/16 02:52:34;;;;;;;;;;;;;;;;;;5007590;28;19917;-78
2023/08/16 02:54:59;;;;;;;;;;;;;;;;;;4991466;28;19929;-77
2023/08/16 02:57:24;;;;;;;;;;;;;;;;;;5019092;28;20005;-78
2023/08/16 02:59:51;;;;;;;;;;;;;;;;;;5008420;28;19925;-78
2023/08/16 03:02:16;;;;;;;;;;;;;;;;;;5020924;28;20011;-78
2023/08/16 03:04:42;;;;;;;;;;;;;;;;;;5013689;28;19920;-78
2023/08/16 03:07:07;;;;;;;;;;;;;;;;;;5022713;28;20557;-78
2023/08/16 03:09:32;;;;;;;;;;;;;;;;;;5008757;28;20281;-78
2023/08/16 03:11:58;;;;;;;;;;;;;;;;;;5024571;28;19936;-78
2023/08/16 03:14:23;;;;;;;;;;;;;;;;;;5021947;28;19921;-78
2023/08/16 03:16:48;;;;;;;;;;;;;;;;;;5020661;28;20007;-78
2023/08/16 03:19:14;;;;;;;;;;;;;;;;;;5000118;28;19932;-77
2023/08/16 03:21:39;;;;;;;;;;;;;;;;;;4991537;28;19963;-76
2023/08/16 03:24:05;;;;;;;;;;;;;;;;;;5004382;28;19921;-76
2023/08/16 03:26:30;;;;;;;;;;;;;;;;;;5005146;28;19924;-76
2023/08/16 03:28:55;;;;;;;;;;;;;;;;;;4999827;28;19921;-77
2023/08/16 03:31:21;;;;;;;;;;;;;;;;;;5001471;28;19916;-77
2023/08/16 03:33:46;;;;;;;;;;;;;;;;;;5018130;28;19976;-77
2023/08/16 03:36:11;;;;;;;;;;;;;;;;;;4991821;28;19967;-76
2023/08/16 03:38:36;;;;;;;;;;;;;;;;;;4990354;28;19932;-76
2023/08/16 03:41:02;;;;;;;;;;;;;;;;;;5018321;28;19921;-76
2023/08/16 03:43:29;;;;;;;;;;;;;;;;;;5000661;28;19917;-77
2023/08/16 03:45:54;;;;;;;;;;;;;;;;;;5018668;28;19975;-77
2023/08/16 03:48:19;;;;;;;;;;;;;;;;;;5000786;28;19925;-77
2023/08/16 03:50:44;;;;;;;;;;;;;;;;;;4992330;28;19928;-76
2023/08/16 03:53:15;;;;;;;;;;;;;;;;;;4990739;28;19917;-76
2023/08/16 03:55:40;;;;;;;;;;;;;;;;;;4999012;28;20011;-76
2023/08/16 03:58:06;;;;;;;;;;;;;;;;;;4982258;28;19921;-76
2023/08/16 04:00:31;;;;;;;;;;;;;;;;;;4993113;28;19923;-74
2023/08/16 04:02:56;;;;;;;;;;;;;;;;;;5017031;28;19921;-74
2023/08/16 04:05:21;;;;;;;;;;;;;;;;;;5018937;28;20405;-74
2023/08/16 04:07:49;;;;;;;;;;;;;;;;;;5017673;28;19991;-74
2023/08/16 04:10:17;;;;;;;;;;;;;;;;;;5000941;28;19917;-74
2023/08/16 04:12:44;;;;;;;;;;;;;;;;;;4983976;28;19921;-74
2023/08/16 04:15:13;;;;;;;;;;;;;;;;;;5014552;28;20300;-74
2023/08/16 04:17:40;;;;;;;;;;;;;;;;;;5004489;28;19917;-75
2023/08/16 04:20:06;;;;;;;;;;;;;;;;;;5020633;28;19962;-74
2023/08/16 04:22:32;;;;;;;;;;;;;;;;;;5018735;28;20007;-75
2023/08/16 04:24:57;;;;;;;;;;;;;;;;;;5020469;28;19921;-76
2023/08/16 04:27:23;;;;;;;;;;;;;;;;;;5003612;28;19921;-74
2023/08/16 04:29:48;;;;;;;;;;;;;;;;;;5022653;28;19920;-74
2023/08/16 04:32:14;;;;;;;;;;;;;;;;;;5004761;28;20027;-74
2023/08/16 04:34:39;;;;;;;;;;;;;;;;;;5001856;28;19999;-75
2023/08/16 04:37:04;;;;;;;;;;;;;;;;;;4986132;28;20396;-75
2023/08/16 04:39:32;;;;;;;;;;;;;;;;;;4998443;28;19921;-74
2023/08/16 04:41:57;;;;;;;;;;;;;;;;;;4993968;28;19913;-75
2023/08/16 04:44:22;;;;;;;;;;;;;;;;;;5003231;28;19921;-74
2023/08/16 04:46:49;;;;;;;;;;;;;;;;;;4991711;28;20605;-73
2023/08/16 04:49:15;;;;;;;;;;;;;;;;;;4996913;28;19937;-75
2023/08/16 04:51:40;;;;;;;;;;;;;;;;;;5013070;28;20568;-74
2023/08/16 04:54:07;;;;;;;;;;;;;;;;;;4988206;28;19925;-75
2023/08/16 04:56:34;;;;;;;;;;;;;;;;;;5022841;28;19999;-75
2023/08/16 04:59:00;;;;;;;;;;;;;;;;;;4995923;28;19921;-74
2023/08/16 05:01:25;;;;;;;;;;;;;;;;;;5005522;28;19921;-74
2023/08/16 05:03:51;;;;;;;;;;;;;;;;;;5001917;28;19963;-75
2023/08/16 05:06:17;;;;;;;;;;;;;;;;;;5003078;28;19927;-73
2023/08/16 05:08:42;;;;;;;;;;;;;;;;;;4994265;28;19932;-75
2023/08/16 05:11:08;;;;;;;;;;;;;;;;;;5022780;28;19921;-74
2023/08/16 05:13:33;;;;;;;;;;;;;;;;;;5022040;28;19928;-74
2023/08/16 05:15:58;;;;;;;;;;;;;;;;;;5004518;28;19928;-75
2023/08/16 05:18:24;;;;;;;;;;;;;;;;;;5004633;28;19921;-75
2023/08/16 05:20:49;;;;;;;;;;;;;;;;;;4988344;28;20012;-75
2023/08/16 05:23:14;;;;;;;;;;;;;;;;;;5005538;28;19921;-75
2023/08/16 05:25:39;;;;;;;;;;;;;;;;;;5022261;28;19952;-75
2023/08/16 05:28:05;;;;;;;;;;;;;;;;;;5020959;28;19983;-74
2023/08/16 05:30:30;;;;;;;;;;;;;;;;;;5018595;28;19921;-73
2023/08/16 05:32:55;;;;;;;;;;;;;;;;;;4989787;28;20051;-73
2023/08/16 05:35:23;;;;;;;;;;;;;;;;;;4996045;28;20435;-74
2023/08/16 05:37:50;;;;;;;;;;;;;;;;;;5016414;28;19939;-73
2023/08/16 05:40:15;;;;;;;;;;;;;;;;;;5022240;28;20390;-74
2023/08/16 05:42:41;;;;;;;;;;;;;;;;;;4999287;28;19917;-73
2023/08/16 05:45:06;;;;;;;;;;;;;;;;;;5022441;28;19921;-74
2023/08/16 05:47:31;;;;;;;;;;;;;;;;;;4994014;28;19952;-74
2023/08/16 05:49:57;;;;;;;;;;;;;;;;;;5007369;28;19925;-75
2023/08/16 05:52:22;;;;;;;;;;;;;;;;;;5002156;28;19921;-74
2023/08/16 05:54:47;;;;;;;;;;;;;;;;;;5003584;28;19962;-74
2023/08/16 05:57:12;;;;;;;;;;;;;;;;;;5002728;28;19927;-75
2023/08/16 05:59:39;;;;;;;;;;;;;;;;;;5019159;28;19934;-77
2023/08/16 06:02:07;;;;;;;;;;;;;;;;;;5006346;28;19932;-75
2023/08/16 06:04:32;;;;;;;;;;;;;;;;;;5016488;28;19921;-76
2023/08/16 06:07:00;;;;;;;;;;;;;;;;;;5018980;28;19921;-76
2023/08/16 06:09:26;;;;;;;;;;;;;;;;;;4991285;28;19932;-76
2023/08/16 06:11:51;;;;;;;;;;;;;;;;;;5009491;28;20909;-77
2023/08/16 06:14:16;;;;;;;;;;;;;;;;;;5019971;28;19933;-76
2023/08/16 06:16:41;;;;;;;;;;;;;;;;;;5002800;28;19931;-75
2023/08/16 06:19:08;;;;;;;;;;;;;;;;;;4991481;28;21110;-76
2023/08/16 06:21:34;;;;;;;;;;;;;;;;;;5019821;28;20321;-76
2023/08/16 06:24:02;;;;;;;;;;;;;;;;;;5003555;28;19923;-78
2023/08/16 06:26:27;;;;;;;;;;;;;;;;;;5002195;28;19917;-77
2023/08/16 06:28:52;;;;;;;;;;;;;;;;;;5009807;28;20372;-77
2023/08/16 06:31:18;;;;;;;;;;;;;;;;;;5001967;28;19924;-76
2023/08/16 06:33:43;;;;;;;;;;;;;;;;;;5006169;28;20725;-76
2023/08/16 06:36:09;;;;;;;;;;;;;;;;;;5002425;28;19921;-76
2023/08/16 06:38:34;;;;;;;;;;;;;;;;;;4991497;28;21160;-77
2023/08/16 06:40:59;;;;;;;;;;;;;;;;;;5007546;28;20003;-76
2023/08/16 06:43:24;;;;;;;;;;;;;;;;;;5003840;28;19928;-76
2023/08/16 06:45:50;;;;;;;;;;;;;;;;;;5010519;28;19955;-76
2023/08/16 06:48:15;;;;;;;;;;;;;;;;;;5002253;28;19971;-77
2023/08/16 06:50:40;;;;;;;;;;;;;;;;;;5005052;28;19928;-77
2023/08/16 06:53:06;;;;;;;;;;;;;;;;;;5020682;28;19928;-78
2023/08/16 06:55:31;;;;;;;;;;;;;;;;;;5010884;28;19921;-76
2023/08/16 06:57:56;;;;;;;;;;;;;;;;;;4990676;28;21787;-76
2023/08/16 07:00:21;;;;;;;;;;;;;;;;;;5004153;28;19952;-78
2023/08/16 07:02:48;;;;;;;;;;;;;;;;;;4993639;28;19924;-77
2023/08/16 07:05:13;;;;;;;;;;;;;;;;;;5011696;28;19939;-77
2023/08/16 07:07:39;;;;;;;;;;;;;;;;;;5004551;28;21752;-77
2023/08/16 07:10:04;;;;;;;;;;;;;;;;;;4987987;28;19976;-76
2023/08/16 07:12:29;;;;;;;;;;;;;;;;;;5020306;28;19971;-77
2023/08/16 07:14:55;;;;;;;;;;;;;;;;;;5022939;28;19932;-77
2023/08/16 07:17:21;;;;;;;;;;;;;;;;;;5002064;28;19978;-78
2023/08/16 07:19:50;;;;;;;;;;;;;;;;;;5002190;28;19935;-78
2023/08/16 07:22:16;;;;;;;;;;;;;;;;;;5002692;28;19924;-77
2023/08/16 07:24:41;;;;;;;;;;;;;;;;;;5020229;28;19921;-78
2023/08/16 07:27:06;;;;;;;;;;;;;;;;;;4993357;28;20339;-78
2023/08/16 07:29:31;;;;;;;;;;;;;;;;;;4984699;28;19993;-78
2023/08/16 07:31:57;;;;;;;;;;;;;;;;;;5015173;28;20859;-77
2023/08/16 07:34:22;;;;;;;;;;;;;;;;;;5014567;28;19979;-77
2023/08/16 07:36:47;;;;;;;;;;;;;;;;;;4997298;28;19921;-78
2023/08/16 07:39:12;;;;;;;;;;;;;;;;;;4998089;28;19947;-77
2023/08/16 07:41:38;;;;;;;;;;;;;;;;;;5019846;28;20354;-77
2023/08/16 07:44:06;;;;;;;;;;;;;;;;;;5018637;28;20047;-77
2023/08/16 07:46:31;;;;;;;;;;;;;;;;;;5002274;28;19917;-78
2023/08/16 07:48:58;;;;;;;;;;;;;;;;;;5018248;28;20008;-76
2023/08/16 07:51:23;;;;;;;;;;;;;;;;;;5008854;28;19924;-76
2023/08/16 07:53:48;;;;;;;;;;;;;;;;;;5017062;28;19920;-76
2023/08/16 07:56:14;;;;;;;;;;;;;;;;;;5018260;28;20011;-76
2023/08/16 07:58:41;;;;;;;;;;;;;;;;;;5017494;28;19967;-76
2023/08/16 08:01:07;;;;;;;;;;;;;;;;;;4990526;28;19928;-76
2023/08/16 08:03:33;;;;;;;;;;;;;;;;;;4989734;28;19921;-76
2023/08/16 08:05:58;;;;;;;;;;;;;;;;;;4999627;28;20014;-75
2023/08/16 08:08:24;;;;;;;;;;;;;;;;;;5000923;28;19921;-75
2023/08/16 08:10:49;;;;;;;;;;;;;;;;;;5019270;28;20387;-75
2023/08/16 08:13:14;;;;;;;;;;;;;;;;;;4998973;28;19920;-75
2023/08/16 08:15:40;;;;;;;;;;;;;;;;;;5014152;28;19925;-73
2023/08/16 08:18:05;;;;;;;;;;;;;;;;;;4989185;28;20860;-74
2023/08/16 08:20:30;;;;;;;;;;;;;;;;;;4997010;28;19928;-73
2023/08/16 08:22:58;;;;;;;;;;;;;;;;;;5001195;28;20004;-74
2023/08/16 08:25:24;;;;;;;;;;;;;;;;;;4997755;28;19970;-73
2023/08/16 08:27:50;;;;;;;;;;;;;;;;;;4988048;28;20361;-73
2023/08/16 08:30:17;;;;;;;;;;;;;;;;;;4989433;28;19921;-73
2023/08/16 08:32:43;;;;;;;;;;;;;;;;;;5015532;28;19921;-73
2023/08/16 08:35:08;;;;;;;;;;;;;;;;;;4997362;28;19945;-73
2023/08/16 08:37:33;;;;;;;;;;;;;;;;;;5012507;28;19929;-73
2023/08/16 08:39:59;;;;;;;;;;;;;;;;;;4998292;28;19932;-72
2023/08/16 08:42:24;;;;;;;;;;;;;;;;;;4997231;28;19924;-74
2023/08/16 08:44:49;;;;;;;;;;;;;;;;;;4986183;28;19928;-73
2023/08/16 08:47:15;;;;;;;;;;;;;;;;;;4988132;28;21259;-73
2023/08/16 08:49:40;;;;;;;;;;;;;;;;;;5002858;28;19929;-73
2023/08/16 08:52:06;;;;;;;;;;;;;;;;;;5001553;28;19956;-72
2023/08/16 08:54:31;;;;;;;;;;;;;;;;;;4988509;28;20070;-73
2023/08/16 08:56:56;;;;;;;;;;;;;;;;;;4998847;28;20323;-72
2023/08/16 08:59:25;;;;;;;;;;;;;;;;;;5018227;28;19955;-72
2023/08/16 09:01:50;;;;;;;;;;;;;;;;;;5000417;28;20022;-73
2023/08/16 09:04:18;;;;;;;;;;;;;;;;;;5020012;28;20028;-72
2023/08/16 09:06:46;;;;;;;;;;;;;;;;;;5002048;28;20376;-72
2023/08/16 09:09:14;;;;;;;;;;;;;;;;;;4984446;28;19921;-73
2023/08/16 09:11:39;;;;;;;;;;;;;;;;;;5003897;28;19975;-73
2023/08/16 09:14:07;;;;;;;;;;;;;;;;;;5019981;28;19931;-72
2023/08/16 09:16:32;;;;;;;;;;;;;;;;;;5001560;28;19936;-72
2023/08/16 09:19:01;;;;;;;;;;;;;;;;;;5020765;28;20403;-72
2023/08/16 09:21:28;;;;;;;;;;;;;;;;;;5002887;28;19968;-72
2023/08/16 09:23:56;;;;;;;;;;;;;;;;;;4990319;28;19940;-72
2023/08/16 09:26:21;;;;;;;;;;;;;;;;;;4982875;28;19979;-72
2023/08/16 09:28:47;;;;;;;;;;;;;;;;;;4992341;28;19924;-73
2023/08/16 09:31:12;;;;;;;;;;;;;;;;;;4996987;28;19921;-72
2023/08/16 09:33:38;;;;;;;;;;;;;;;;;;5003343;28;19916;-70
2023/08/16 09:36:04;;;;;;;;;;;;;;;;;;5021961;28;19921;-72
2023/08/16 09:38:29;;;;;;;;;;;;;;;;;;4995313;28;19925;-72
2023/08/16 09:40:55;;;;;;;;;;;;;;;;;;4999619;28;19933;-72
2023/08/16 09:43:20;;;;;;;;;;;;;;;;;;5002334;28;19922;-71
2023/08/16 09:45:45;;;;;;;;;;;;;;;;;;4993225;28;20826;-73
2023/08/16 09:48:10;;;;;;;;;;;;;;;;;;4983516;28;19932;-70
2023/08/16 09:50:38;;;;;;;;;;;;;;;;;;4992396;28;19922;-70
2023/08/16 09:53:04;;;;;;;;;;;;;;;;;;4998668;28;19932;-70
2023/08/16 09:55:29;;;;;;;;;;;;;;;;;;5001703;28;19917;-72
2023/08/16 09:57:57;;;;;;;;;;;;;;;;;;4991697;28;19921;-72
2023/08/16 10:00:27;;;;;;;;;;;;;;;;;;5003931;28;19971;-70
2023/08/16 10:02:54;;;;;;;;;;;;;;;;;;5001875;28;20199;-70
2023/08/16 10:05:20;;;;;;;;;;;;;;;;;;5008300;28;19925;-71
2023/08/16 10:07:48;;;;;;;;;;;;;;;;;;4997427;28;19917;-70
2023/08/16 10:10:14;;;;;;;;;;;;;;;;;;5001379;28;21972;-70
2023/08/16 10:12:42;;;;;;;;;;;;;;;;;;4990352;28;20033;-70
2023/08/16 10:15:10;;;;;;;;;;;;;;;;;;5000121;28;19917;-71
2023/08/16 10:17:35;;;;;;;;;;;;;;;;;;4996727;28;19936;-73
2023/08/16 10:20:04;;;;;;;;;;;;;;;;;;4998682;28;19939;-70
2023/08/16 10:22:32;;;;;;;;;;;;;;;;;;4997769;28;19928;-70
2023/08/16 10:24:57;;;;;;;;;;;;;;;;;;4999303;28;19929;-71
2023/08/16 10:27:23;;;;;;;;;;;;;;;;;;5000409;28;19925;-69
2023/08/16 10:29:51;;;;;;;;;;;;;;;;;;5000028;28;20509;-70
2023/08/16 10:32:16;;;;;;;;;;;;;;;;;;4997461;28;19921;-70
2023/08/16 10:34:43;;;;;;;;;;;;;;;;;;4998247;28;20413;-70
2023/08/16 10:37:08;;;;;;;;;;;;;;;;;;5005778;28;20525;-70
2023/08/16 10:39:33;;;;;;;;;;;;;;;;;;4980075;28;19929;-70
2023/08/16 10:42:01;;;;;;;;;;;;;;;;;;4998379;28;21063;-68
2023/08/16 10:44:32;;;;;;;;;;;;;;;;;;4985502;28;20065;-69
2023/08/16 10:46:59;;;;;;;;;;;;;;;;;;4989129;28;19921;-68
2023/08/16 10:49:25;;;;;;;;;;;;;;;;;;4983332;28;19948;-70
2023/08/16 10:51:55;;;;;;;;;;;;;;;;;;4986542;28;19925;-70
2023/08/16 10:54:20;;;;;;;;;;;;;;;;;;4986455;28;19922;-68
2023/08/16 10:56:49;;;;;;;;;;;;;;;;;;4997860;28;19925;-69
2023/08/16 10:59:17;;;;;;;;;;;;;;;;;;4998764;28;19917;-70
2023/08/16 11:01:45;;;;;;;;;;;;;;;;;;4999015;28;20043;-70
2023/08/16 11:04:13;;;;;;;;;;;;;;;;;;4986213;28;19925;-71
2023/08/16 11:06:43;;;;;;;;;;;;;;;;;;4997175;28;20551;-72
2023/08/16 11:09:08;;;;;;;;;;;;;;;;;;4989294;28;20558;-71
2023/08/16 11:11:34;;;;;;;;;;;;;;;;;;4980920;28;19927;-69
2023/08/16 11:14:02;;;;;;;;;;;;;;;;;;4984664;28;19922;-70
2023/08/16 11:16:27;;;;;;;;;;;;;;;;;;4990973;28;19975;-71
2023/08/16 11:18:59;;;;;;;;;;;;;;;;;;4980816;28;19921;-70
2023/08/16 11:21:25;;;;;;;;;;;;;;;;;;4990574;28;19918;-71
2023/08/16 11:23:51;;;;;;;;;;;;;;;;;;4996366;28;20017;-70
2023/08/16 11:26:19;;;;;;;;;;;;;;;;;;4998893;28;19932;-69
2023/08/16 11:28:44;;;;;;;;;;;;;;;;;;4982910;28;19921;-70
2023/08/16 11:31:12;;;;;;;;;;;;;;;;;;4997021;28;19992;-72
2023/08/16 11:33:38;;;;;;;;;;;;;;;;;;4994380;28;19996;-70
2023/08/16 11:36:04;;;;;;;;;;;;;;;;;;4995746;28;20393;-70
2023/08/16 11:38:29;;;;;;;;;;;;;;;;;;4987024;28;19933;-70
2023/08/16 11:40:57;;;;;;;;;;;;;;;;;;5004629;28;20063;-69
2023/08/16 11:43:22;;;;;;;;;;;;;;;;;;4995249;28;21792;-68
2023/08/16 11:45:47;;;;;;;;;;;;;;;;;;4981246;28;19925;-67
2023/08/16 11:48:15;;;;;;;;;;;;;;;;;;4996397;28;19918;-67
2023/08/16 11:50:42;;;;;;;;;;;;;;;;;;4998412;28;19925;-66
2023/08/16 11:53:08;;;;;;;;;;;;;;;;;;5004034;28;19923;-68
2023/08/16 11:55:33;;;;;;;;;;;;;;;;;;4996295;28;20410;-69
2023/08/16 11:58:01;;;;;;;;;;;;;;;;;;4997108;28;19917;-68
2023/08/16 12:00:26;;;;;;;;;;;;;;;;;;4992596;28;19958;-69
2023/08/16 12:02:51;;;;;;;;;;;;;;;;;;4999317;28;19924;-69
2023/08/16 12:05:17;;;;;;;;;;;;;;;;;;4994901;28;21844;-69
2023/08/16 12:07:45;;;;;;;;;;;;;;;;;;4979488;28;20282;-68
2023/08/16 12:10:10;;;;;;;;;;;;;;;;;;4988231;28;20351;-70
2023/08/16 12:12:38;;;;;;;;;;;;;;;;;;4998797;28;19955;-69
2023/08/16 12:15:06;;;;;;;;;;;;;;;;;;4996257;28;20464;-68
2023/08/16 12:17:32;;;;;;;;;;;;;;;;;;4987393;28;19955;-69
2023/08/16 12:19:57;;;;;;;;;;;;;;;;;;4998385;28;21034;-67
2023/08/16 12:22:23;;;;;;;;;;;;;;;;;;4984689;28;19921;-69
2023/08/16 12:24:50;;;;;;;;;;;;;;;;;;4998841;28;19968;-68
2023/08/16 12:27:19;;;;;;;;;;;;;;;;;;4985901;28;20034;-68
2023/08/16 12:29:46;;;;;;;;;;;;;;;;;;4995575;28;19951;-68
2023/08/16 12:32:14;;;;;;;;;;;;;;;;;;5003134;28;19939;-68
2023/08/16 12:34:42;;;;;;;;;;;;;;;;;;5000855;28;20071;-68
2023/08/16 12:37:10;;;;;;;;;;;;;;;;;;4996922;28;19931;-68
2023/08/16 12:39:35;;;;;;;;;;;;;;;;;;5006712;28;19971;-68
2023/08/16 12:42:06;;;;;;;;;;;;;;;;;;5007213;28;19936;-70
2023/08/16 12:44:31;;;;;;;;;;;;;;;;;;4983118;28;21865;-68
2023/08/16 12:46:59;;;;;;;;;;;;;;;;;;4990083;28;19921;-68
2023/08/16 12:49:24;;;;;;;;;;;;;;;;;;4998645;28;20047;-68
2023/08/16 12:51:50;;;;;;;;;;;;;;;;;;4998569;28;19960;-68
2023/08/16 12:54:17;;;;;;;;;;;;;;;;;;5001583;28;19961;-68
2023/08/16 12:56:43;;;;;;;;;;;;;;;;;;5002728;28;19956;-70
2023/08/16 12:59:08;;;;;;;;;;;;;;;;;;4983886;28;20024;-68
2023/08/16 13:01:34;;;;;;;;;;;;;;;;;;5002431;28;19917;-69
2023/08/16 13:03:59;;;;;;;;;;;;;;;;;;5000802;28;20297;-69
2023/08/16 13:06:25;;;;;;;;;;;;;;;;;;5000522;28;19924;-67
2023/08/16 13:08:50;;;;;;;;;;;;;;;;;;5004130;28;20379;-70
2023/08/16 13:11:16;;;;;;;;;;;;;;;;;;5002881;28;19921;-68
2023/08/16 13:13:41;;;;;;;;;;;;;;;;;;5008822;28;19921;-68
2023/08/16 13:16:09;;;;;;;;;;;;;;;;;;4980566;28;19923;-69
2023/08/16 13:18:34;;;;;;;;;;;;;;;;;;5002672;28;20387;-67
2023/08/16 13:21:00;;;;;;;;;;;;;;;;;;5000721;28;19928;-69
2023/08/16 13:23:25;;;;;;;;;;;;;;;;;;5001052;28;20355;-70
2023/08/16 13:25:53;;;;;;;;;;;;;;;;;;4998973;28;21327;-68
2023/08/16 13:28:19;;;;;;;;;;;;;;;;;;4996057;28;19953;-72
2023/08/16 13:30:46;;;;;;;;;;;;;;;;;;4994240;28;19922;-68
2023/08/16 13:33:12;;;;;;;;;;;;;;;;;;4994410;28;20744;-67
2023/08/16 13:35:37;;;;;;;;;;;;;;;;;;4994149;28;19992;-69
2023/08/16 13:38:03;;;;;;;;;;;;;;;;;;4993808;28;21159;-68
2023/08/16 13:40:31;;;;;;;;;;;;;;;;;;5004749;28;19953;-69
2023/08/16 13:42:57;;;;;;;;;;;;;;;;;;4998248;28;20291;-69
2023/08/16 13:45:25;;;;;;;;;;;;;;;;;;5001261;28;19932;-71
2023/08/16 13:47:50;;;;;;;;;;;;;;;;;;4991630;28;19917;-68
2023/08/16 13:50:16;;;;;;;;;;;;;;;;;;4995058;28;19921;-69
2023/08/16 13:52:41;;;;;;;;;;;;;;;;;;4986810;28;19956;-68
2023/08/16 13:55:11;;;;;;;;;;;;;;;;;;4997899;28;20606;-68
2023/08/16 13:57:39;;;;;;;;;;;;;;;;;;5000797;28;19940;-68
2023/08/16 14:00:04;;;;;;;;;;;;;;;;;;4985006;28;19917;-68
2023/08/16 14:02:30;;;;;;;;;;;;;;;;;;4989069;28;21920;-71
2023/08/16 14:04:55;;;;;;;;;;;;;;;;;;4996950;28;19971;-67
2023/08/16 14:07:20;;;;;;;;;;;;;;;;;;4990332;28;19921;-68
2023/08/16 14:09:48;;;;;;;;;;;;;;;;;;4998029;28;20019;-70
2023/08/16 14:12:17;;;;;;;;;;;;;;;;;;4995459;28;19928;-68
2023/08/16 14:14:44;;;;;;;;;;;;;;;;;;5002102;28;19921;-68
2023/08/16 14:17:10;;;;;;;;;;;;;;;;;;4987387;28;19921;-69
2023/08/16 14:19:35;;;;;;;;;;;;;;;;;;4981848;28;19917;-67
2023/08/16 14:22:01;;;;;;;;;;;;;;;;;;4996373;28;21784;-68
2023/08/16 14:24:26;;;;;;;;;;;;;;;;;;4998841;28;20020;-68
2023/08/16 14:26:54;;;;;;;;;;;;;;;;;;4986248;28;20632;-68
2023/08/16 14:29:19;;;;;;;;;;;;;;;;;;5000920;28;19917;-67
2023/08/16 14:31:47;;;;;;;;;;;;;;;;;;4997452;28;20000;-67
2023/08/16 14:34:15;;;;;;;;;;;;;;;;;;4985513;28;20384;-67
2023/08/16 14:36:44;;;;;;;;;;;;;;;;;;4999222;28;20020;-67
2023/08/16 14:39:09;;;;;;;;;;;;;;;;;;5001377;28;20004;-67
2023/08/16 14:41:34;;;;;;;;;;;;;;;;;;4997867;28;21693;-67
2023/08/16 14:43:59;;;;;;;;;;;;;;;;;;4997768;28;20041;-67
2023/08/16 14:46:25;;;;;;;;;;;;;;;;;;4986437;28;20413;-66
2023/08/16 14:48:54;;;;;;;;;;;;;;;;;;4979761;28;20883;-68
2023/08/16 14:51:22;;;;;;;;;;;;;;;;;;4998824;28;20820;-69
2023/08/16 14:53:47;;;;;;;;;;;;;;;;;;4995864;28;19927;-67
2023/08/16 14:56:15;;;;;;;;;;;;;;;;;;4997465;28;19921;-67
2023/08/16 14:58:40;;;;;;;;;;;;;;;;;;4975034;28;19928;-67
2023/08/16 15:01:08;;;;;;;;;;;;;;;;;;5000609;28;19924;-67
2023/08/16 15:03:37;;;;;;;;;;;;;;;;;;4998223;28;20932;-67
2023/08/16 15:06:05;;;;;;;;;;;;;;;;;;4988487;28;19964;-66
2023/08/16 15:08:30;;;;;;;;;;;;;;;;;;5000105;28;19929;-69
2023/08/16 15:10:58;;;;;;;;;;;;;;;;;;5011913;28;19921;-68
2023/08/16 15:13:23;;;;;;;;;;;;;;;;;;4997908;28;19936;-68
2023/08/16 15:15:48;;;;;;;;;;;;;;;;;;5004774;28;19964;-68
2023/08/16 15:18:16;;;;;;;;;;;;;;;;;;4996253;28;19917;-68
2023/08/16 15:20:42;;;;;;;;;;;;;;;;;;4993555;28;20381;-69
2023/08/16 15:23:08;;;;;;;;;;;;;;;;;;4995114;28;19921;-68
2023/08/16 15:25:33;;;;;;;;;;;;;;;;;;4992555;28;20347;-69
2023/08/16 15:27:58;;;;;;;;;;;;;;;;;;4991420;28;20079;-67
2023/08/16 15:30:26;;;;;;;;;;;;;;;;;;4992029;28;20520;-67
2023/08/16 15:32:54;;;;;;;;;;;;;;;;;;4987951;28;20340;-67
2023/08/16 15:35:20;;;;;;;;;;;;;;;;;;4984910;28;19921;-68
2023/08/16 15:37:45;;;;;;;;;;;;;;;;;;5004163;28;20329;-70
2023/08/16 15:40:13;;;;;;;;;;;;;;;;;;4991763;28;20058;-68
2023/08/16 15:42:41;;;;;;;;;;;;;;;;;;5019050;28;19921;-66
2023/08/16 15:45:06;;;;;;;;;;;;;;;;;;4986552;28;19921;-67
2023/08/16 15:47:34;;;;;;;;;;;;;;;;;;5019417;28;19964;-67
2023/08/16 15:49:59;;;;;;;;;;;;;;;;;;4995051;28;19920;-67
2023/08/16 15:52:27;;;;;;;;;;;;;;;;;;4989172;28;19921;-68
2023/08/16 15:54:53;;;;;;;;;;;;;;;;;;5016500;28;19966;-68
2023/08/16 15:57:18;;;;;;;;;;;;;;;;;;5002205;28;19920;-68
2023/08/16 15:59:47;;;;;;;;;;;;;;;;;;5017641;28;19967;-68
2023/08/16 16:02:12;;;;;;;;;;;;;;;;;;4984032;28;20486;-67
2023/08/16 16:04:37;;;;;;;;;;;;;;;;;;5002113;28;19971;-67
2023/08/16 16:07:05;;;;;;;;;;;;;;;;;;5001651;28;19924;-65
2023/08/16 16:09:31;;;;;;;;;;;;;;;;;;5017749;28;20024;-67
2023/08/16 16:11:56;;;;;;;;;;;;;;;;;;5017716;28;19921;-66
2023/08/16 16:14:24;;;;;;;;;;;;;;;;;;5018542;28;20134;-67
2023/08/16 16:16:50;;;;;;;;;;;;;;;;;;4991041;28;20022;-67
2023/08/16 16:19:15;;;;;;;;;;;;;;;;;;5004560;28;21182;-67
2023/08/16 16:21:43;;;;;;;;;;;;;;;;;;5003634;28;19959;-70
2023/08/16 16:24:08;;;;;;;;;;;;;;;;;;4989801;28;20011;-66
2023/08/16 16:26:36;;;;;;;;;;;;;;;;;;5000493;28;19960;-72
2023/08/16 16:29:01;;;;;;;;;;;;;;;;;;5008124;28;20024;-67
2023/08/16 16:31:26;;;;;;;;;;;;;;;;;;5000139;28;20023;-68
2023/08/16 16:33:52;;;;;;;;;;;;;;;;;;4990335;28;19921;-68
2023/08/16 16:36:20;;;;;;;;;;;;;;;;;;5018382;28;19920;-68